createdAt,value
2017-09-16T00:07:58.986Z,77
2017-09-16T00:19:55.001Z,78
2017-09-16T00:31:53.321Z,78
2017-09-16T00:43:50.345Z,78
2017-09-16T00:55:47.714Z,78
2017-09-16T01:07:44.847Z,78
2017-09-16T01:19:43.449Z,78
2017-09-16T01:31:41.853Z,78
2017-09-16T01:43:39.049Z,77
2017-09-16T01:55:37.480Z,78
2017-09-16T02:07:35.367Z,77
2017-09-16T02:19:32.624Z,78
2017-09-16T02:31:29.943Z,77
2017-09-16T02:43:26.114Z,77
2017-09-16T02:55:23.075Z,74
2017-09-16T03:07:20.420Z,77
2017-09-16T03:19:17.779Z,77
2017-09-16T03:31:14.956Z,77
2017-09-16T03:43:13.079Z,74
2017-09-16T03:55:09.151Z,77
2017-09-16T04:07:06.493Z,77
2017-09-16T04:19:03.100Z,77
2017-09-16T04:30:59.604Z,77
2017-09-16T04:42:55.335Z,77
2017-09-16T04:54:52.267Z,77
2017-09-16T05:06:49.490Z,77
2017-09-16T05:18:46.488Z,77
2017-09-16T05:30:40.880Z,77
2017-09-16T05:42:36.466Z,77
2017-09-16T05:54:33.557Z,77
2017-09-16T06:06:31.866Z,77
2017-09-16T06:18:28.866Z,74
2017-09-16T06:30:26.278Z,77
2017-09-16T06:42:24.367Z,76
2017-09-16T06:54:23.762Z,76
2017-09-16T07:06:26.320Z,76
2017-09-16T07:18:26.800Z,77
2017-09-16T07:30:25.240Z,76
2017-09-16T07:42:22.160Z,76
2017-09-16T07:54:21.481Z,74
2017-09-16T08:06:21.111Z,75
2017-09-16T08:18:18.821Z,76
2017-09-16T08:30:19.841Z,76
2017-09-16T08:42:17.360Z,76
2017-09-16T08:54:14.611Z,74
2017-09-16T09:06:13.855Z,75
2017-09-16T09:18:11.843Z,76
2017-09-16T09:30:11.022Z,74
2017-09-16T09:42:09.288Z,75
2017-09-16T09:54:07.753Z,75
2017-09-16T10:06:06.779Z,75
2017-09-16T10:18:06.545Z,75
2017-09-16T10:30:06.491Z,75
2017-09-16T10:42:35.164Z,74
2017-09-16T10:54:32.958Z,75
2017-09-16T11:06:30.601Z,74
2017-09-16T11:18:30.032Z,75
2017-09-16T11:30:28.498Z,72
2017-09-16T11:42:28.028Z,72
2017-09-16T11:54:29.379Z,74
2017-09-16T12:06:27.538Z,74
2017-09-16T12:18:26.024Z,74
2017-09-16T12:30:24.076Z,74
2017-09-16T12:42:20.905Z,74
2017-09-16T12:54:19.688Z,73
2017-09-16T13:06:17.719Z,74
2017-09-16T13:18:15.243Z,74
2017-09-16T13:30:15.304Z,70
2017-09-16T13:42:12.610Z,71
2017-09-16T13:54:09.432Z,74
2017-09-16T14:06:10.580Z,74
2017-09-16T14:18:07.597Z,74
2017-09-16T14:30:35.649Z,74
2017-09-16T14:42:34.920Z,70
2017-09-16T14:54:34.575Z,73
2017-09-16T15:06:31.516Z,74
2017-09-16T15:18:29.185Z,74
2017-09-16T15:30:27.187Z,74
2017-09-16T15:42:26.733Z,73
2017-09-16T15:54:23.689Z,74
2017-09-16T16:06:22.374Z,74
2017-09-16T16:18:20.596Z,74
2017-09-16T16:30:18.210Z,73
2017-09-16T16:42:15.642Z,73
2017-09-16T16:54:14.635Z,73
2017-09-16T17:06:11.997Z,73
2017-09-16T17:18:10.426Z,73
2017-09-16T17:30:08.600Z,70
2017-09-16T17:42:08.595Z,73
2017-09-16T17:54:06.748Z,72
2017-09-16T18:06:03.779Z,73
2017-09-16T18:18:00.447Z,72
2017-09-16T18:29:59.747Z,72
2017-09-16T18:41:58.221Z,73
2017-09-16T18:53:55.792Z,70
2017-09-16T19:05:57.511Z,73
2017-09-16T19:17:54.580Z,69
2017-09-16T19:29:53.017Z,72
2017-09-16T19:41:50.320Z,72
2017-09-16T19:53:48.525Z,72
2017-09-16T20:05:45.963Z,72
2017-09-16T20:17:44.895Z,72
2017-09-16T20:29:44.726Z,72
2017-09-16T20:41:43.274Z,72
2017-09-16T20:53:41.776Z,72
2017-09-16T21:05:38.133Z,72
2017-09-16T21:17:36.467Z,72
2017-09-16T21:29:34.685Z,72
2017-09-16T21:41:30.808Z,72
2017-09-16T21:53:29.398Z,68
2017-09-16T22:05:27.882Z,72
2017-09-16T22:17:24.909Z,72
2017-09-16T22:29:22.987Z,72
2017-09-16T22:41:22.508Z,72
2017-09-16T22:53:20.970Z,72
2017-09-16T23:05:16.735Z,70
2017-09-16T23:17:13.897Z,72
2017-09-16T23:29:12.012Z,72
2017-09-16T23:41:08.010Z,68
2017-09-16T23:53:03.825Z,72
